Friday, July 25, 2014
22:10 UTC
  |  Log In   |  Register Free
Airport Search:

Coleman Municipal Airport
(KCOM)

Coleman Municipal Airport Diagram
No Airport Diagram Available

FAA data valid effective July 24, 2014 until September 18, 2014 (unless otherwise noted).

 
 
 
 
 
 
 
 
 
 
 
 
 
 

Current Aviation Weather for Coleman Municipal Airport (KCOM)

The most recent METAR observation for KCOM was updated at: 2135 UTC
METAR Summary (Translated METAR)
KCOM
252135Z AUTO 15007KT 10SM CLR 36/15 A2998 RMK AO2 T03560146
KBWD
(23 nm SE from KCOM)
252135Z AUTO 18008KT 150V210 10SM CLR 35/17 A2997 RMK AO2
TAF Summary (Translated TAF)
KABI
(37 nm NW from KCOM)
251720Z 2518/2618 17010KT P6SM FEW080
  Airport Weather Conditions for KCOM

 Current Weather at COM
95° F
Fair
South winds at 5.8 mph
COM NOAA Radar

Pressure: 29.99 in
Humidity: 30%
Wind: South at 5.8 MPH (5 KT)
Dew Point: 59.2°F
Visibility: 10.00 mi


Airport Weather Forecast for KCOM

Translated METAR and TAF for KCOM
Translated METAR for KCOM (2204 UTC 25 July 2014)
found at http://aviationweather.gov/adds/metars/
 
METAR text: KCOM 252155Z AUTO 17003KT 10SM CLR 35/15 A2997 RMK AO2 T03530151
Conditions at: KCOM (COLEMAN MUNI , TX, US) observed 2155 UTC 25 July 2014
Temperature: 35.3°C (96°F)
Dewpoint: 15.1°C (59°F) [RH = 30%]
Pressure (altimeter): 29.97 inches Hg (1015.0 mb)
Winds: from the S (170 degrees) at 3 MPH (3 knots; 1.6 m/s)
Visibility: 10 or more miles (16+ km)
Ceiling: at least 12,000 feet AGL
Clouds: sky clear below 12,000 feet AGL
Weather: automated observation with no human augmentation;
there may or may not be significant weather present at this time
Translated TAF for KCOM

There is no translated TAF available for this airport

Find All Airport Services Find A Hotel Find A Rental Car Find A Golf Course Find A Restaurant $100 Hamburger



FBO's on the Field
FBO Company Facility Photos Services Transportation Aviation Fuel Prices: Prices include tax
Catering Weather Repair Courtesy Rental Type 100LL JetA JetA+ MOGAS 8087
 
Add another FBO Facility Photos Catering Weather Repair Courtesy Rental Type 100LL JetA JetA+ MOGAS 8087
Services Transportation Aviation Fuel Prices: Prices include tax
There are no FBO's currently reporting fuel at COM. List your FBO now


GlobalAir.com Airport Resource Center model-print
model-print
model-print
model-print